Time;durP1;ratioP1;P1;durP2;ratioP2;P2;SDS_P1;SDS_P2;PMS_P1;PMS_P2;Temp;Humidity;BMP_temperature;BMP_pressure;BME280_temperature;BME280_humidity;BME280_pressure;Samples;Min_cycle;Max_cycle;Signal;HPM_P1;HPM_P2
2023/05/06 00:00:57;;;;;;;11.95;8.02;;;;;;;11.19;80.61;101054.19;7401590;19;20010;-71
2023/05/06 00:03:26;;;;;;;12.20;8.98;;;;;;;11.13;80.82;101043.78;7400458;19;20045;-71
2023/05/06 00:05:54;;;;;;;10.35;8.48;;;;;;;11.08;81.12;101041.28;7401887;19;20018;-70
2023/05/06 00:08:23;;;;;;;11.68;7.93;;;;;;;11.01;81.68;101030.94;7401038;19;20032;-71
2023/05/06 00:10:51;;;;;;;10.23;7.90;;;;;;;10.98;81.81;101034.47;7401730;19;20022;-70
2023/05/06 00:13:22;;;;;;;13.57;7.63;;;;;;;10.96;82.26;101030.16;7399838;19;20384;-72
2023/05/06 00:15:51;;;;;;;11.43;8.50;;;;;;;10.93;82.48;101033.66;7401953;19;20010;-72
2023/05/06 00:18:21;;;;;;;12.77;7.90;;;;;;;10.89;82.68;101026.75;7400856;19;20488;-71
2023/05/06 00:20:49;;;;;;;12.93;8.30;;;;;;;10.84;83.08;101018.09;7401109;19;20018;-72
2023/05/06 00:23:18;;;;;;;12.35;8.45;;;;;;;10.77;83.11;101017.34;7399667;19;20018;-72
2023/05/06 00:25:46;;;;;;;10.35;7.50;;;;;;;10.71;83.54;101022.72;7401225;19;20022;-72
2023/05/06 00:28:15;;;;;;;10.77;8.63;;;;;;;10.68;83.79;101020.13;7400719;19;20490;-72
2023/05/06 00:30:46;;;;;;;10.15;8.23;;;;;;;10.65;83.76;101007.06;7397993;19;20515;-72
2023/05/06 00:33:14;;;;;;;15.48;8.40;;;;;;;10.58;84.01;101009.81;7399695;19;20387;-71
2023/05/06 00:35:43;;;;;;;11.82;8.70;;;;;;;10.59;84.20;101008.91;7400428;19;20054;-72
2023/05/06 00:38:14;;;;;;;11.65;8.27;;;;;;;10.57;84.48;101007.22;7400786;19;20014;-72
2023/05/06 00:40:43;;;;;;;15.65;9.13;;;;;;;10.55;84.54;101004.63;7400724;19;20357;-72
2023/05/06 00:43:11;;;;;;;10.65;8.32;;;;;;;10.53;85.07;101009.03;7399529;19;20019;-72
2023/05/06 00:45:40;;;;;;;13.85;8.35;;;;;;;10.51;85.04;101000.28;7397240;19;20015;-72
2023/05/06 00:48:12;;;;;;;12.23;7.88;;;;;;;10.52;85.15;101012.53;7400091;19;20022;-72
2023/05/06 00:50:41;;;;;;;14.93;8.18;;;;;;;10.52;85.46;101004.66;7398494;19;20019;-72
2023/05/06 00:53:11;;;;;;;11.57;8.20;;;;;;;10.52;85.62;100994.16;7399250;19;20106;-72
2023/05/06 00:55:40;;;;;;;13.05;8.82;;;;;;;10.47;85.65;100993.38;7400381;19;20022;-72
2023/05/06 00:58:09;;;;;;;12.90;8.73;;;;;;;10.42;85.92;100996.06;7400250;19;20370;-74
2023/05/06 01:00:37;;;;;;;10.82;8.48;;;;;;;10.39;86.24;100996.13;7400235;19;20031;-72
2023/05/06 01:03:06;;;;;;;14.25;9.13;;;;;;;10.38;86.26;100990.94;7398899;19;20384;-72
2023/05/06 01:05:47;;;;;;;14.15;8.75;;;;;;;10.36;86.42;100990.06;7400261;19;20031;-72
2023/05/06 01:08:22;;;;;;;16.02;9.30;;;;;;;10.33;86.70;100988.34;7397787;19;20373;-71
2023/05/06 01:10:55;;;;;;;11.75;8.90;;;;;;;10.32;86.85;100983.13;7397701;19;20086;-71
2023/05/06 01:13:31;;;;;;;13.27;8.93;;;;;;;10.27;86.92;100981.47;7399518;19;20045;-67
2023/05/06 01:16:02;;;;;;;10.95;9.25;;;;;;;10.25;87.15;100977.97;7399244;19;20022;-67
2023/05/06 01:18:34;;;;;;;15.98;8.65;;;;;;;10.23;87.11;100976.28;7399176;19;20020;-67
2023/05/06 01:21:07;;;;;;;15.65;10.35;;;;;;;10.19;87.16;100972.84;7399939;19;20018;-67
2023/05/06 01:23:57;;;;;;;11.68;8.73;;;;;;;10.17;87.20;100973.75;7398200;19;20074;-67
2023/05/06 01:26:32;;;;;;;13.02;9.45;;;;;;;10.15;87.76;100978.16;7399207;19;20014;-67
2023/05/06 01:29:01;;;;;;;11.70;9.00;;;;;;;10.14;87.67;100973.81;7398389;19;20559;-69
2023/05/06 01:31:40;;;;;;;14.68;8.38;;;;;;;10.12;87.67;100971.19;7399035;19;20022;-69
2023/05/06 01:34:17;;;;;;;17.55;9.35;;;;;;;10.09;87.85;100979.97;7396736;19;20499;-69
2023/05/06 01:37:00;;;;;;;11.18;8.52;;;;;;;10.09;87.77;100985.22;7398512;19;20477;-69
2023/05/06 01:39:33;;;;;;;14.23;9.20;;;;;;;10.08;87.90;100986.13;7396883;19;20410;-70
2023/05/06 01:42:04;;;;;;;11.75;9.52;;;;;;;10.07;88.15;100987.03;7398515;19;20014;-69
2023/05/06 01:44:35;;;;;;;14.95;8.63;;;;;;;10.09;88.19;100993.09;7395613;19;20505;-69
2023/05/06 01:47:04;;;;;;;11.25;9.20;;;;;;;10.10;88.13;100996.59;7398650;19;20018;-72
2023/05/06 01:49:33;;;;;;;11.70;9.27;;;;;;;10.09;88.20;100995.69;7397495;19;20037;-70
2023/05/06 01:52:03;;;;;;;16.10;8.88;;;;;;;10.09;88.32;101000.94;7398082;19;20018;-67
2023/05/06 01:54:34;;;;;;;15.43;9.07;;;;;;;10.09;88.45;101007.97;7396376;19;20027;-67
2023/05/06 01:57:03;;;;;;;16.70;9.40;;;;;;;10.08;88.52;101009.72;7397484;19;20028;-67
2023/05/06 01:59:32;;;;;;;13.50;9.07;;;;;;;10.10;88.68;101009.69;7396948;19;20514;-67
2023/05/06 02:02:00;;;;;;;16.88;9.40;;;;;;;10.09;88.53;101014.06;7396078;19;20039;-67
2023/05/06 02:04:29;;;;;;;13.85;9.23;;;;;;;10.08;88.68;101012.34;7396089;19;20035;-67
2023/05/06 02:06:57;;;;;;;16.60;9.32;;;;;;;10.09;88.72;101014.06;7397999;19;20018;-67
2023/05/06 02:09:26;;;;;;;12.98;9.05;;;;;;;10.10;88.64;101017.56;7397097;19;20366;-67
2023/05/06 02:11:57;;;;;;;9.65;8.65;;;;;;;10.09;88.76;101026.31;7397688;19;20087;-68
2023/05/06 02:14:25;;;;;;;12.48;9.68;;;;;;;10.09;88.91;101031.56;7395819;19;20023;-67
2023/05/06 02:16:54;;;;;;;14.75;10.02;;;;;;;10.09;89.14;101035.03;7395443;19;20031;-67
2023/05/06 02:19:22;;;;;;;12.55;9.30;;;;;;;10.09;89.19;101021.06;7395208;19;20492;-67
2023/05/06 02:21:51;;;;;;;14.13;9.18;;;;;;;10.10;89.27;101017.56;7395210;19;20014;-67
2023/05/06 02:24:19;;;;;;;13.95;9.43;;;;;;;10.09;89.27;101013.22;7395433;19;20026;-67
2023/05/06 02:26:48;;;;;;;12.30;9.10;;;;;;;10.08;89.16;101012.34;7395403;19;20039;-67
2023/05/06 02:29:19;;;;;;;12.50;9.00;;;;;;;10.07;89.25;101020.22;7395255;19;20011;-67
2023/05/06 02:31:48;;;;;;;14.35;9.48;;;;;;;10.05;89.41;101016.78;7397477;19;20015;-67
2023/05/06 02:34:17;;;;;;;14.63;9.82;;;;;;;10.05;89.39;101024.63;7395032;19;20014;-67
2023/05/06 02:36:46;;;;;;;11.15;9.25;;;;;;;10.04;89.47;101023.75;7396890;19;20093;-67
2023/05/06 02:39:14;;;;;;;15.20;9.57;;;;;;;10.04;89.66;101015.03;7396766;19;20018;-67
2023/05/06 02:41:43;;;;;;;17.40;9.75;;;;;;;10.05;89.45;101016.78;7396630;19;20018;-66
2023/05/06 02:44:11;;;;;;;15.25;9.10;;;;;;;10.02;89.40;101019.41;7394833;19;20022;-68
2023/05/06 02:46:42;;;;;;;15.63;8.25;;;;;;;10.00;89.53;101021.22;7396156;19;20018;-68
2023/05/06 02:49:11;;;;;;;11.35;8.82;;;;;;;9.98;89.59;101025.59;7396695;19;20368;-68
2023/05/06 02:51:39;;;;;;;13.15;8.20;;;;;;;9.96;89.62;101028.25;7394707;19;20026;-68
2023/05/06 02:54:08;;;;;;;12.88;9.63;;;;;;;9.94;89.65;101015.19;7394203;19;20022;-68
2023/05/06 02:56:36;;;;;;;11.40;8.63;;;;;;;9.89;89.31;101006.50;7396194;19;20026;-67
2023/05/06 02:59:05;;;;;;;18.63;9.38;;;;;;;9.86;89.50;101017.03;7395732;19;20014;-66
2023/05/06 03:01:33;;;;;;;12.10;9.13;;;;;;;9.84;89.72;101010.09;7396039;19;20024;-67
2023/05/06 03:04:05;;;;;;;11.18;9.02;;;;;;;9.81;89.69;101007.50;7394663;19;20022;-67
2023/05/06 03:06:34;;;;;;;13.30;9.45;;;;;;;9.77;89.80;101004.94;7396452;19;20019;-67
2023/05/06 03:09:03;;;;;;;13.27;8.32;;;;;;;9.75;89.68;101000.59;7395179;19;20022;-67
2023/05/06 03:11:32;;;;;;;11.65;8.35;;;;;;;9.72;89.72;100988.41;7394092;19;20019;-67
2023/05/06 03:14:00;;;;;;;13.15;8.70;;;;;;;9.68;89.62;100986.72;7393774;19;20018;-67
2023/05/06 03:16:29;;;;;;;12.13;8.77;;;;;;;9.67;89.52;100989.34;7395596;19;20014;-66
2023/05/06 03:18:57;;;;;;;13.63;9.60;;;;;;;9.62;89.55;100982.44;7395434;19;20035;-66
2023/05/06 03:21:28;;;;;;;12.35;9.02;;;;;;;9.61;89.63;100985.94;7395137;19;20474;-67
2023/05/06 03:23:57;;;;;;;11.48;9.32;;;;;;;9.61;89.58;100983.31;7394271;19;20023;-67
2023/05/06 03:26:25;;;;;;;14.07;8.98;;;;;;;9.59;89.59;100982.47;7393593;19;20422;-67
2023/05/06 03:28:54;;;;;;;14.80;10.20;;;;;;;9.59;89.57;100979.84;7393183;19;20023;-67
2023/05/06 03:31:22;;;;;;;16.70;9.52;;;;;;;9.59;89.73;100982.47;7393662;19;20039;-67
2023/05/06 03:33:51;;;;;;;13.95;9.68;;;;;;;9.59;89.61;100979.84;7393772;19;20023;-67
2023/05/06 03:36:22;;;;;;;10.43;8.85;;;;;;;9.60;89.53;100975.47;7395855;19;20418;-65
2023/05/06 03:38:54;;;;;;;10.38;8.77;;;;;;;9.59;89.24;100974.63;7396350;19;20017;-70
2023/05/06 03:41:22;;;;;;;14.55;9.45;;;;;;;9.58;89.07;100975.50;7394605;19;20014;-70
2023/05/06 03:43:51;;;;;;;14.70;9.85;;;;;;;9.55;89.26;100967.66;7393510;19;20021;-71
2023/05/06 03:46:19;;;;;;;12.82;8.95;;;;;;;9.54;89.11;100973.81;7392980;19;20006;-70
2023/05/06 03:48:48;;;;;;;13.63;9.20;;;;;;;9.52;89.22;100972.97;7394672;19;20018;-70
2023/05/06 03:51:16;;;;;;;12.25;9.48;;;;;;;9.52;89.13;100972.13;7392750;19;20015;-70
2023/05/06 03:53:45;;;;;;;15.75;9.60;;;;;;;9.50;89.08;100974.72;7393302;19;20031;-70
2023/05/06 03:56:17;;;;;;;13.23;9.15;;;;;;;9.50;89.13;100971.25;7394325;19;20018;-71
2023/05/06 03:58:45;;;;;;;14.68;9.73;;;;;;;9.49;89.08;100967.78;7394228;19;20497;-70
2023/05/06 04:01:13;;;;;;;13.35;9.32;;;;;;;9.49;89.16;100969.53;7394224;19;20380;-71
2023/05/06 04:03:42;;;;;;;13.77;9.75;;;;;;;9.49;89.05;100973.03;7393166;19;20086;-70
2023/05/06 04:06:10;;;;;;;24.95;15.43;;;;;;;9.49;89.10;100970.41;7394403;19;20019;-70
2023/05/06 04:08:39;;;;;;;22.30;15.77;;;;;;;9.48;88.98;100973.91;7393882;19;20021;-71
2023/05/06 04:11:09;;;;;;;15.93;10.93;;;;;;;9.48;89.09;100979.16;7392814;19;20037;-71
2023/05/06 04:13:40;;;;;;;15.65;10.13;;;;;;;9.46;88.88;100978.28;7392010;19;20039;-71
2023/05/06 04:16:08;;;;;;;14.00;9.73;;;;;;;9.44;88.98;100978.31;7393882;19;20357;-71
2023/05/06 04:18:38;;;;;;;14.40;10.13;;;;;;;9.44;88.91;100986.16;7393568;19;20078;-71
2023/05/06 04:21:07;;;;;;;13.75;9.32;;;;;;;9.43;88.85;100987.03;7395813;19;20040;-72
2023/05/06 04:23:35;;;;;;;13.38;9.73;;;;;;;9.42;88.96;100987.06;7399758;19;20018;-71
2023/05/06 04:26:04;;;;;;;13.30;10.43;;;;;;;9.41;88.77;100983.56;7399836;19;20078;-71
2023/05/06 04:28:32;;;;;;;14.48;10.85;;;;;;;9.40;88.87;100983.59;7401054;19;20086;-70
2023/05/06 04:31:03;;;;;;;14.45;10.23;;;;;;;9.40;89.02;100986.22;7399218;19;20484;-70
2023/05/06 04:33:32;;;;;;;12.77;9.45;;;;;;;9.37;89.01;100975.78;7399588;19;20019;-70
2023/05/06 04:36:00;;;;;;;13.93;9.85;;;;;;;9.41;88.95;100987.97;7400856;19;20018;-70
2023/05/06 04:38:30;;;;;;;11.82;9.43;;;;;;;9.42;89.03;100994.94;7400837;19;20014;-70
2023/05/06 04:40:59;;;;;;;11.10;9.82;;;;;;;9.43;88.84;100992.28;7400465;19;20556;-70
2023/05/06 04:43:28;;;;;;;13.45;10.57;;;;;;;9.42;88.88;100995.78;7398748;19;20485;-70
2023/05/06 04:45:56;;;;;;;14.10;11.18;;;;;;;9.43;88.96;100996.66;7398287;19;20014;-69
2023/05/06 04:48:27;;;;;;;13.57;10.35;;;;;;;9.44;88.80;100995.78;7397862;19;20018;-70
2023/05/06 04:50:56;;;;;;;14.10;10.05;;;;;;;9.45;88.94;100997.50;7399506;19;20032;-70
2023/05/06 04:53:24;;;;;;;13.10;10.90;;;;;;;9.49;88.90;100998.31;7399136;19;20021;-70
2023/05/06 04:55:53;;;;;;;15.02;11.13;;;;;;;9.49;88.94;101001.84;7397837;19;20014;-70
2023/05/06 04:58:21;;;;;;;15.88;11.80;;;;;;;9.52;88.89;100998.31;7400223;19;20028;-70
2023/05/06 05:00:50;;;;;;;15.60;10.75;;;;;;;9.54;88.71;100993.88;7397704;19;20019;-70
2023/05/06 05:03:18;;;;;;;16.85;11.43;;;;;;;9.56;88.79;101000.00;7398752;19;20078;-70
2023/05/06 05:05:49;;;;;;;12.98;11.05;;;;;;;9.56;88.74;101008.69;7399858;19;20018;-70
2023/05/06 05:08:17;;;;;;;13.65;10.50;;;;;;;9.58;88.75;101004.31;7397826;19;20087;-70
2023/05/06 05:10:46;;;;;;;15.73;11.10;;;;;;;9.57;88.76;100992.09;7398662;19;20014;-70
2023/05/06 05:13:15;;;;;;;17.77;11.77;;;;;;;9.57;88.75;100999.97;7397641;19;20018;-70
2023/05/06 05:15:43;;;;;;;13.48;10.77;;;;;;;9.57;88.62;101002.56;7399478;19;20033;-71
2023/05/06 05:18:11;;;;;;;17.30;12.35;;;;;;;9.56;88.80;101000.84;7399314;19;20014;-71
2023/05/06 05:20:40;;;;;;;14.95;11.13;;;;;;;9.56;88.60;101011.31;7399393;19;20018;-71
2023/05/06 05:23:11;;;;;;;16.05;12.15;;;;;;;9.55;88.72;101012.19;7398350;19;20028;-71
2023/05/06 05:25:39;;;;;;;19.17;11.43;;;;;;;9.52;88.68;101003.53;7400846;19;20014;-71
2023/05/06 05:28:14;;;;;;;14.65;10.05;;;;;;;9.55;88.76;101014.81;7398921;19;20007;-71
2023/05/06 05:30:42;;;;;;;12.82;10.25;;;;;;;9.55;88.55;101017.44;7398246;19;20021;-70
2023/05/06 05:33:11;;;;;;;14.27;10.63;;;;;;;9.57;88.63;101026.16;7397346;19;20383;-71
2023/05/06 05:35:39;;;;;;;17.25;11.10;;;;;;;9.58;88.67;101021.81;7398879;19;20018;-71
2023/05/06 05:38:11;;;;;;;14.50;11.73;;;;;;;9.56;88.39;101029.66;7398699;19;20010;-71
2023/05/06 05:40:40;;;;;;;14.38;10.63;;;;;;;9.53;88.68;101024.47;7399082;19;20014;-71
2023/05/06 05:43:09;;;;;;;14.82;12.15;;;;;;;9.54;88.63;101030.56;7397254;19;20499;-71
2023/05/06 05:45:43;;;;;;;16.40;10.85;;;;;;;9.54;88.67;101025.31;7396030;19;20346;-71
2023/05/06 05:48:18;;;;;;;18.48;12.13;;;;;;;9.58;88.53;101021.81;7398378;19;20091;-70
2023/05/06 05:50:46;;;;;;;17.60;11.45;;;;;;;9.60;88.50;101017.38;7396937;19;20010;-71
2023/05/06 05:53:17;;;;;;;13.65;11.70;;;;;;;9.63;88.44;101025.22;7397233;19;20082;-70
2023/05/06 05:55:46;;;;;;;14.18;11.38;;;;;;;9.66;88.45;101025.16;7398526;19;20014;-70
2023/05/06 05:58:14;;;;;;;16.95;11.98;;;;;;;9.67;88.36;101029.53;7398014;19;20022;-70
2023/05/06 06:00:43;;;;;;;13.20;9.85;;;;;;;9.70;88.23;101032.09;7397733;19;20022;-71
2023/05/06 06:03:11;;;;;;;13.35;11.27;;;;;;;9.71;88.11;101025.97;7396775;19;20018;-70
2023/05/06 06:05:40;;;;;;;14.88;10.55;;;;;;;9.72;88.10;101032.94;7396871;19;20373;-70
2023/05/06 06:08:09;;;;;;;12.88;10.30;;;;;;;9.73;87.95;101021.59;7395392;19;20010;-70
2023/05/06 06:10:40;;;;;;;13.68;10.43;;;;;;;9.75;87.77;101025.03;7396748;19;20548;-70
2023/05/06 06:13:09;;;;;;;16.27;10.25;;;;;;;9.77;87.72;101025.03;7397060;19;20028;-70
2023/05/06 06:15:37;;;;;;;12.55;10.80;;;;;;;9.80;87.69;101029.38;7395905;19;20015;-70
2023/05/06 06:18:07;;;;;;;14.43;11.10;;;;;;;9.82;87.66;101025.84;7397093;19;20010;-70
2023/05/06 06:20:35;;;;;;;12.65;9.68;;;;;;;9.84;87.57;101037.13;7396946;19;20015;-70
2023/05/06 06:23:04;;;;;;;13.35;10.30;;;;;;;9.89;87.42;101043.19;7396334;19;20086;-70
2023/05/06 06:25:33;;;;;;;15.13;11.00;;;;;;;9.92;87.25;101040.53;7397080;19;20022;-70
2023/05/06 06:28:04;;;;;;;13.18;10.07;;;;;;;9.95;87.12;101039.63;7394968;19;20078;-71
2023/05/06 06:30:32;;;;;;;18.88;10.32;;;;;;;9.98;86.96;101046.56;7396562;19;20365;-70
2023/05/06 06:33:01;;;;;;;13.07;9.70;;;;;;;10.02;86.92;101051.75;7396249;19;20028;-70
2023/05/06 06:35:51;;;;;;;15.27;9.57;;;;;;;10.06;86.83;101055.19;7396731;19;20014;-70
2023/05/06 06:38:20;;;;;;;13.05;10.70;;;;;;;10.08;86.72;101059.53;7396235;19;20010;-70
2023/05/06 06:40:48;;;;;;;13.13;10.15;;;;;;;10.10;86.46;101063.00;7396595;19;20014;-70
2023/05/06 06:43:20;;;;;;;15.18;10.50;;;;;;;10.13;86.50;101053.34;7395258;19;20086;-70
2023/05/06 06:45:55;;;;;;;13.95;10.60;;;;;;;10.13;86.44;101062.06;7395465;19;20033;-70
2023/05/06 06:48:30;;;;;;;15.77;9.95;;;;;;;10.16;86.34;101064.66;7396072;19;20038;-70
2023/05/06 06:50:58;;;;;;;11.20;10.00;;;;;;;10.16;86.31;101062.03;7395000;19;20015;-71
2023/05/06 06:53:27;;;;;;;17.45;11.23;;;;;;;10.21;86.35;101075.06;7394734;19;20477;-70
2023/05/06 06:55:55;;;;;;;16.17;10.82;;;;;;;10.21;86.08;101073.31;7394376;19;20014;-70
2023/05/06 06:58:26;;;;;;;13.65;11.07;;;;;;;10.20;86.13;101076.84;7395638;19;20082;-71
2023/05/06 07:00:55;;;;;;;15.93;10.88;;;;;;;10.21;86.12;101075.94;7394748;19;20025;-70
2023/05/06 07:03:23;;;;;;;24.52;16.77;;;;;;;10.22;86.03;101072.44;7393824;19;20090;-70
2023/05/06 07:05:52;;;;;;;21.58;15.00;;;;;;;10.23;86.02;101074.16;7395077;19;20078;-70
2023/05/06 07:08:21;;;;;;;17.17;11.88;;;;;;;10.23;85.91;101079.41;7394953;19;20021;-71
2023/05/06 07:10:49;;;;;;;12.88;11.15;;;;;;;10.21;85.70;101083.81;7396052;19;20022;-70
2023/05/06 07:13:19;;;;;;;12.02;10.73;;;;;;;10.21;85.70;101070.72;7394255;19;20373;-71
2023/05/06 07:15:50;;;;;;;13.77;10.68;;;;;;;10.19;85.47;101077.72;7394878;19;20499;-71
2023/05/06 07:18:19;;;;;;;14.18;11.35;;;;;;;10.18;85.39;101065.50;7392965;19;20089;-71
2023/05/06 07:20:47;;;;;;;12.48;10.27;;;;;;;10.19;85.37;101072.47;7395232;19;20019;-71
2023/05/06 07:23:16;;;;;;;15.20;11.85;;;;;;;10.17;85.42;101069.00;7394222;19;20018;-71
2023/05/06 07:25:44;;;;;;;13.48;10.60;;;;;;;10.24;85.37;101080.28;7394779;19;20078;-71
2023/05/06 07:28:12;;;;;;;15.32;10.95;;;;;;;10.25;85.23;101075.00;7394507;19;20099;-71
2023/05/06 07:30:41;;;;;;;14.27;11.00;;;;;;;10.26;85.22;101083.72;7394688;19;20033;-71
2023/05/06 07:33:12;;;;;;;15.02;10.60;;;;;;;10.25;85.24;101077.63;7392825;19;20018;-71
2023/05/06 07:35:40;;;;;;;19.50;11.35;;;;;;;10.23;85.16;101084.63;7394848;19;20081;-69
2023/05/06 07:38:09;;;;;;;15.65;11.57;;;;;;;10.19;85.22;101085.59;7393986;19;20018;-71
2023/05/06 07:40:37;;;;;;;15.50;12.18;;;;;;;10.15;85.44;101085.63;7394426;19;20019;-71
2023/05/06 07:43:06;;;;;;;16.35;11.70;;;;;;;10.15;85.63;101088.25;7393760;19;20434;-71
2023/05/06 07:45:34;;;;;;;14.75;11.65;;;;;;;10.15;85.57;101090.88;7393329;19;20011;-71
2023/05/06 07:48:02;;;;;;;18.58;12.23;;;;;;;10.14;85.64;101092.66;7394525;19;20372;-71
2023/05/06 07:50:34;;;;;;;17.27;12.18;;;;;;;10.14;85.58;101095.28;7394498;19;20078;-71
2023/05/06 07:53:02;;;;;;;15.30;12.45;;;;;;;10.14;85.61;101094.41;7392525;19;20034;-71
2023/05/06 07:55:31;;;;;;;17.58;12.30;;;;;;;10.13;85.52;101106.66;7392690;19;20088;-71
2023/05/06 07:57:59;;;;;;;17.17;12.48;;;;;;;10.13;85.45;101103.16;7398481;19;20011;-71
2023/05/06 08:00:28;;;;;;;16.92;12.88;;;;;;;10.12;85.33;101104.91;7401796;19;20025;-71
2023/05/06 08:02:56;;;;;;;14.65;11.43;;;;;;;10.12;85.50;101107.53;7400714;19;20022;-71
2023/05/06 08:05:25;;;;;;;15.65;12.18;;;;;;;10.14;85.46;101104.91;7400783;19;20518;-71
2023/05/06 08:07:56;;;;;;;16.05;11.50;;;;;;;10.14;85.63;101111.00;7401034;19;20359;-72
2023/05/06 08:10:24;;;;;;;15.05;11.50;;;;;;;10.12;85.40;101118.00;7401860;19;20078;-71
2023/05/06 08:12:52;;;;;;;15.73;11.15;;;;;;;10.06;85.29;101118.97;7399140;19;20048;-71
2023/05/06 08:15:21;;;;;;;15.65;12.30;;;;;;;9.98;85.44;101123.44;7401334;19;20014;-71
2023/05/06 08:17:50;;;;;;;13.65;11.55;;;;;;;9.91;85.55;101133.16;7401993;19;20018;-71
2023/05/06 08:20:18;;;;;;;17.33;12.95;;;;;;;9.87;85.89;101134.09;7400718;19;20014;-71
2023/05/06 08:22:47;;;;;;;14.35;11.82;;;;;;;9.86;86.05;101139.34;7399812;19;20021;-70
2023/05/06 08:25:18;;;;;;;16.73;11.95;;;;;;;9.84;85.85;101139.34;7400925;19;20025;-70
2023/05/06 08:27:47;;;;;;;19.98;13.00;;;;;;;9.82;85.84;101142.88;7400430;19;20489;-71
2023/05/06 08:30:17;;;;;;;16.70;12.48;;;;;;;9.82;85.87;101143.75;7400390;19;20021;-69
2023/05/06 08:32:45;;;;;;;14.70;12.90;;;;;;;9.83;85.71;101153.34;7398430;19;20022;-70
2023/05/06 08:35:14;;;;;;;17.15;12.80;;;;;;;9.85;85.81;101156.81;7400657;19;20102;-70
2023/05/06 08:37:42;;;;;;;17.60;13.30;;;;;;;9.86;85.62;101163.78;7398144;19;20015;-71
2023/05/06 08:40:20;;;;;;;15.77;12.52;;;;;;;9.87;85.67;101165.53;7400376;19;20021;-68
2023/05/06 08:42:50;;;;;;;21.83;13.18;;;;;;;9.89;85.56;101173.38;7399791;19;20015;-68
2023/05/06 08:45:19;;;;;;;19.83;13.40;;;;;;;9.88;85.45;101169.91;7399219;19;20556;-67
2023/05/06 08:47:48;;;;;;;17.42;13.30;;;;;;;9.90;85.34;101168.09;7397949;19;20489;-68
2023/05/06 08:50:17;;;;;;;20.48;14.65;;;;;;;9.92;85.50;101174.22;7397341;19;20023;-68
2023/05/06 08:52:46;;;;;;;18.45;13.23;;;;;;;9.94;85.46;101172.44;7397680;19;20034;-68
2023/05/06 08:55:15;;;;;;;17.80;13.48;;;;;;;9.97;85.46;101170.66;7398903;19;20468;-70
2023/05/06 08:57:46;;;;;;;19.60;13.93;;;;;;;9.99;85.35;101180.22;7399181;19;20082;-69
2023/05/06 09:00:16;;;;;;;18.20;14.05;;;;;;;9.96;85.12;101180.28;7400033;19;20022;-70
2023/05/06 09:02:45;;;;;;;18.65;13.68;;;;;;;9.95;85.07;101176.78;7396521;19;20484;-69
2023/05/06 09:05:13;;;;;;;20.85;14.65;;;;;;;9.97;85.27;101179.41;7397026;19;20022;-69
2023/05/06 09:07:42;;;;;;;18.30;13.52;;;;;;;9.97;84.91;101178.53;7395944;19;20070;-69
2023/05/06 09:10:16;;;;;;;19.67;13.07;;;;;;;9.93;84.75;101185.53;7398522;19;20021;-71
2023/05/06 09:12:47;;;;;;;16.38;12.85;;;;;;;9.87;84.65;101178.63;7397819;19;20019;-71
2023/05/06 09:15:16;;;;;;;19.77;14.05;;;;;;;9.81;84.87;101180.44;7399604;19;20028;-71
2023/05/06 09:17:45;;;;;;;18.95;13.40;;;;;;;9.77;84.87;101182.25;7399084;19;20082;-70
2023/05/06 09:20:14;;;;;;;21.52;14.15;;;;;;;9.76;84.89;101180.50;7398727;19;20015;-69
2023/05/06 09:22:43;;;;;;;20.95;13.60;;;;;;;9.77;84.92;101179.63;7398183;19;20035;-68
2023/05/06 09:25:12;;;;;;;22.35;15.02;;;;;;;9.77;84.92;101177.88;7396753;19;20015;-69
2023/05/06 09:27:41;;;;;;;20.38;14.40;;;;;;;9.78;84.99;101182.22;7399006;19;20091;-70
2023/05/06 09:30:14;;;;;;;17.15;13.57;;;;;;;9.82;84.73;101185.69;7399143;19;20079;-72
2023/05/06 09:32:42;;;;;;;23.30;15.70;;;;;;;9.86;84.82;101178.66;7396958;19;20070;-69
2023/05/06 09:35:11;;;;;;;28.48;17.05;;;;;;;9.91;84.79;101175.09;7398516;19;20036;-70
2023/05/06 09:37:39;;;;;;;22.63;15.68;;;;;;;10.00;84.67;101181.13;7398375;19;20028;-70
2023/05/06 09:40:10;;;;;;;23.35;15.98;;;;;;;10.06;84.54;101187.13;7396491;19;20006;-71
2023/05/06 09:42:39;;;;;;;24.40;14.90;;;;;;;10.09;84.20;101188.84;7396339;19;20019;-70
2023/05/06 09:45:13;;;;;;;22.73;16.08;;;;;;;10.08;84.03;101187.13;7397914;19;20015;-71
2023/05/06 09:47:41;;;;;;;25.90;15.50;;;;;;;10.07;84.09;101186.25;7395757;19;20433;-70
2023/05/06 09:50:11;;;;;;;21.67;15.40;;;;;;;10.08;84.07;101193.25;7397877;19;20081;-70
2023/05/06 09:52:40;;;;;;;23.90;15.95;;;;;;;10.14;84.08;101184.41;7396541;19;20018;-70
2023/05/06 09:55:09;;;;;;;23.02;16.23;;;;;;;10.21;84.13;101198.31;7397375;19;20029;-70
2023/05/06 09:57:38;;;;;;;23.63;15.82;;;;;;;10.25;83.80;101200.88;7396877;19;20416;-71
2023/05/06 10:00:13;;;;;;;23.20;14.38;;;;;;;10.35;83.74;101206.88;7395016;19;20102;-70
2023/05/06 10:02:42;;;;;;;22.17;14.52;;;;;;;10.40;83.65;101206.81;7396938;19;20021;-70
2023/05/06 10:05:13;;;;;;;17.08;13.77;;;;;;;10.44;83.48;101198.06;7394697;19;20022;-70
2023/05/06 10:07:42;;;;;;;20.20;13.63;;;;;;;10.47;83.01;101195.38;7396914;19;20029;-70
2023/05/06 10:10:13;;;;;;;22.63;14.32;;;;;;;10.44;82.54;101203.31;7396528;19;20037;-69
2023/05/06 10:12:41;;;;;;;17.38;12.60;;;;;;;10.38;82.71;101201.59;7396688;19;20019;-69
2023/05/06 10:15:13;;;;;;;22.25;14.65;;;;;;;10.36;82.90;101198.16;7397478;19;20029;-70
2023/05/06 10:17:46;;;;;;;19.42;13.40;;;;;;;10.38;82.97;101198.13;7397950;19;20066;-69
2023/05/06 10:20:16;;;;;;;24.83;13.20;;;;;;;10.37;82.47;101205.13;7395608;19;20018;-69
2023/05/06 10:22:52;;;;;;;20.00;12.93;;;;;;;10.35;82.73;101208.63;7396113;19;20481;-70
2023/05/06 10:25:29;;;;;;;21.63;14.07;;;;;;;10.31;82.76;101205.16;7397310;19;20018;-70
2023/05/06 10:27:57;;;;;;;21.95;13.82;;;;;;;10.32;82.51;101208.66;7394876;19;20432;-70
2023/05/06 10:30:30;;;;;;;18.48;12.98;;;;;;;10.28;82.57;101211.31;7396363;19;20082;-69
2023/05/06 10:33:01;;;;;;;19.80;11.98;;;;;;;10.27;82.54;101209.59;7394791;19;20019;-69
2023/05/06 10:35:37;;;;;;;15.02;12.00;;;;;;;10.26;82.75;101209.59;7396379;19;20078;-69
2023/05/06 10:38:09;;;;;;;19.80;13.60;;;;;;;10.20;82.39;101213.19;7396878;19;20015;-69
2023/05/06 10:40:38;;;;;;;19.42;13.65;;;;;;;10.11;82.54;101216.78;7396377;19;20481;-69
2023/05/06 10:43:25;;;;;;;23.02;13.38;;;;;;;10.06;82.78;101215.09;7396006;19;20420;-69
2023/05/06 10:46:07;;;;;;;20.20;13.45;;;;;;;10.06;82.97;101220.34;7395651;19;20374;-69
2023/05/06 10:48:37;;;;;;;18.83;13.10;;;;;;;10.08;83.03;101218.56;7397373;19;20074;-69
2023/05/06 10:51:24;;;;;;;23.98;12.57;;;;;;;10.09;82.76;101220.31;7396297;19;20548;-69
2023/05/06 10:54:05;;;;;;;17.25;11.50;;;;;;;10.09;82.92;101212.44;7394038;19;20513;-70
2023/05/06 10:56:35;;;;;;;20.63;11.93;;;;;;;10.13;82.91;101214.13;7394664;19;20063;-69
2023/05/06 10:59:07;;;;;;;15.63;11.38;;;;;;;10.18;82.78;101219.34;7393958;19;20011;-69
2023/05/06 11:01:40;;;;;;;12.48;9.93;;;;;;;10.23;82.68;101221.00;7394488;19;20018;-69
2023/05/06 11:04:10;;;;;;;13.95;9.10;;;;;;;10.26;82.55;101226.22;7393468;19;20085;-70
2023/05/06 11:06:43;;;;;;;14.13;9.23;;;;;;;10.27;82.50;101227.97;7396520;19;20018;-70
2023/05/06 11:09:19;;;;;;;10.02;7.13;;;;;;;10.27;82.41;101227.06;7393897;19;20493;-72
2023/05/06 11:11:53;;;;;;;9.25;7.65;;;;;;;10.30;82.59;101231.41;7395554;19;20022;-72
2023/05/06 11:14:29;;;;;;;9.13;6.75;;;;;;;10.34;82.47;101228.75;7393099;19;20021;-70
2023/05/06 11:17:01;;;;;;;7.82;6.45;;;;;;;10.36;82.24;101234.00;7395942;19;20023;-70
2023/05/06 11:19:31;;;;;;;8.48;7.25;;;;;;;10.38;82.46;101229.59;7395256;19;20077;-68
2023/05/06 11:22:01;;;;;;;11.13;8.00;;;;;;;10.39;82.31;101237.44;7393752;19;20018;-70
2023/05/06 11:24:30;;;;;;;11.82;8.30;;;;;;;10.39;82.51;101239.22;7393529;19;20023;-70
2023/05/06 11:27:00;;;;;;;8.80;7.50;;;;;;;10.34;82.33;101239.25;7393005;19;20023;-69
2023/05/06 11:29:29;;;;;;;13.75;8.45;;;;;;;10.31;82.65;101243.66;7396396;19;20022;-70